This is the latest recevied weather packets stored in our database for station/object YO8PIC-12. If no packets are shown the sender has not sent any weather packets the latest 10 day(s).
| Time | Temp. | Humidity | Pressure | Rain* | Wind** | Luminosity | Snow |
|---|---|---|---|---|---|---|---|
| 1787827154 | 26.11° C | 48% | 1026.7 hPa | - | - | - | - |
| 1787826554 | 26.67° C | 47% | 1026.6 hPa | - | - | - | - |
| 1787825954 | 25.56° C | 49% | 1026.7 hPa | - | - | - | - |
| 1787825354 | 24.44° C | 51% | 1026.7 hPa | - | - | - | - |
| 1787824754 | 25° C | 50% | 1026.8 hPa | - | - | - | - |
| 1787824154 | 27.78° C | 45% | 1026.7 hPa | - | - | - | - |
| 1787823554 | 27.78° C | 44% | 1026.6 hPa | - | - | - | - |
| 1787822954 | 27.78° C | 47% | 1026.5 hPa | - | - | - | - |
| 1787822354 | 26.67° C | 49% | 1026.6 hPa | - | - | - | - |
| 1787821754 | 25.56° C | 51% | 1026.8 hPa | - | - | - | - |
| 1787821154 | 25° C | 53% | 1026.9 hPa | - | - | - | - |
| 1787820554 | 23.89° C | 56% | 1027 hPa | - | - | - | - |
| 1787819954 | 23.89° C | 56% | 1027 hPa | - | - | - | - |
| 1787819354 | 23.33° C | 57% | 1027 hPa | - | - | - | - |
| 1787818754 | 22.78° C | 59% | 1026.8 hPa | - | - | - | - |
| 1787818154 | 22.78° C | 58% | 1026.8 hPa | - | - | - | - |
| 1787817554 | 22.78° C | 59% | 1026.8 hPa | - | - | - | - |
| 1787816954 | 23.33° C | 58% | 1026.8 hPa | - | - | - | - |
| 1787816354 | 23.33° C | 59% | 1026.8 hPa | - | - | - | - |
| 1787815754 | 22.78° C | 61% | 1026.8 hPa | - | - | - | - |
| 1787815154 | 22.22° C | 62% | 1026.8 hPa | - | - | - | - |
| 1787813954 | 22.22° C | 63% | 1026.7 hPa | - | - | - | - |
| 1787813354 | 21.67° C | 64% | 1026.6 hPa | - | - | - | - |
| 1787812754 | 21.67° C | 64% | 1026.6 hPa | - | - | - | - |
| 1787812154 | 21.11° C | 65% | 1026.8 hPa | - | - | - | - |
* Rain since midnight (hover to see other rain measurements)
** Current wind speed in m/s (hover to see current wind gust speed)